sensor_id;sensor_type;location;lat;lon;timestamp;P1;durP1;ratioP1;P2;durP2;ratioP2
35530;SDS011;21637;53.352;-6.356;2023-05-20T00:00:05;22.85;;;6.95;;
35530;SDS011;21637;53.352;-6.356;2023-05-20T00:02:32;16.40;;;6.30;;
35530;SDS011;21637;53.352;-6.356;2023-05-20T00:04:58;21.63;;;6.93;;
35530;SDS011;21637;53.352;-6.356;2023-05-20T00:07:24;22.45;;;7.18;;
35530;SDS011;21637;53.352;-6.356;2023-05-20T00:09:50;18.33;;;5.90;;
35530;SDS011;21637;53.352;-6.356;2023-05-20T00:12:16;17.80;;;5.75;;
35530;SDS011;21637;53.352;-6.356;2023-05-20T00:14:41;22.25;;;6.43;;
35530;SDS011;21637;53.352;-6.356;2023-05-20T00:17:07;16.58;;;5.85;;
35530;SDS011;21637;53.352;-6.356;2023-05-20T00:19:33;18.13;;;6.45;;
35530;SDS011;21637;53.352;-6.356;2023-05-20T00:21:59;19.30;;;6.65;;
35530;SDS011;21637;53.352;-6.356;2023-05-20T00:24:25;21.70;;;6.80;;
35530;SDS011;21637;53.352;-6.356;2023-05-20T00:26:51;15.05;;;5.72;;
35530;SDS011;21637;53.352;-6.356;2023-05-20T00:29:17;14.63;;;6.55;;
35530;SDS011;21637;53.352;-6.356;2023-05-20T00:31:45;14.90;;;5.50;;
35530;SDS011;21637;53.352;-6.356;2023-05-20T00:34:10;20.85;;;7.22;;
35530;SDS011;21637;53.352;-6.356;2023-05-20T00:36:36;13.15;;;5.85;;
35530;SDS011;21637;53.352;-6.356;2023-05-20T00:39:02;15.95;;;6.90;;
35530;SDS011;21637;53.352;-6.356;2023-05-20T00:41:28;19.00;;;6.53;;
35530;SDS011;21637;53.352;-6.356;2023-05-20T00:43:54;17.85;;;6.65;;
35530;SDS011;21637;53.352;-6.356;2023-05-20T00:46:20;19.23;;;5.85;;
35530;SDS011;21637;53.352;-6.356;2023-05-20T00:48:47;19.17;;;6.20;;
35530;SDS011;21637;53.352;-6.356;2023-05-20T00:51:15;17.75;;;6.05;;
35530;SDS011;21637;53.352;-6.356;2023-05-20T00:53:41;17.50;;;6.45;;
35530;SDS011;21637;53.352;-6.356;2023-05-20T00:56:08;17.52;;;6.40;;
35530;SDS011;21637;53.352;-6.356;2023-05-20T00:58:34;18.50;;;7.03;;
35530;SDS011;21637;53.352;-6.356;2023-05-20T01:01:02;13.93;;;6.25;;
35530;SDS011;21637;53.352;-6.356;2023-05-20T01:03:28;21.83;;;6.53;;
35530;SDS011;21637;53.352;-6.356;2023-05-20T01:05:54;19.13;;;6.53;;
35530;SDS011;21637;53.352;-6.356;2023-05-20T01:08:20;17.02;;;6.47;;
35530;SDS011;21637;53.352;-6.356;2023-05-20T01:10:48;19.27;;;6.75;;
35530;SDS011;21637;53.352;-6.356;2023-05-20T01:13:20;22.52;;;6.40;;
35530;SDS011;21637;53.352;-6.356;2023-05-20T01:15:48;17.10;;;6.65;;
35530;SDS011;21637;53.352;-6.356;2023-05-20T01:18:16;24.00;;;6.38;;
35530;SDS011;21637;53.352;-6.356;2023-05-20T01:20:48;12.55;;;5.97;;
35530;SDS011;21637;53.352;-6.356;2023-05-20T01:23:15;25.38;;;7.30;;
35530;SDS011;21637;53.352;-6.356;2023-05-20T01:25:41;18.80;;;6.22;;
35530;SDS011;21637;53.352;-6.356;2023-05-20T01:28:07;18.50;;;6.55;;
35530;SDS011;21637;53.352;-6.356;2023-05-20T01:30:34;20.08;;;6.32;;
35530;SDS011;21637;53.352;-6.356;2023-05-20T01:33:06;15.75;;;6.05;;
35530;SDS011;21637;53.352;-6.356;2023-05-20T01:35:35;12.35;;;5.78;;
35530;SDS011;21637;53.352;-6.356;2023-05-20T01:38:02;21.98;;;7.13;;
35530;SDS011;21637;53.352;-6.356;2023-05-20T01:40:30;18.80;;;6.60;;
35530;SDS011;21637;53.352;-6.356;2023-05-20T01:42:58;15.00;;;6.10;;
35530;SDS011;21637;53.352;-6.356;2023-05-20T01:45:25;23.42;;;7.07;;
35530;SDS011;21637;53.352;-6.356;2023-05-20T01:47:51;21.33;;;7.63;;
35530;SDS011;21637;53.352;-6.356;2023-05-20T01:50:17;17.25;;;6.07;;
35530;SDS011;21637;53.352;-6.356;2023-05-20T01:52:42;20.65;;;6.78;;
35530;SDS011;21637;53.352;-6.356;2023-05-20T01:55:08;16.77;;;6.60;;
35530;SDS011;21637;53.352;-6.356;2023-05-20T01:57:34;20.45;;;6.57;;
35530;SDS011;21637;53.352;-6.356;2023-05-20T02:00:00;17.98;;;6.50;;
35530;SDS011;21637;53.352;-6.356;2023-05-20T02:02:26;20.50;;;6.63;;
35530;SDS011;21637;53.352;-6.356;2023-05-20T02:04:52;17.42;;;7.05;;
35530;SDS011;21637;53.352;-6.356;2023-05-20T02:07:18;24.17;;;6.95;;
35530;SDS011;21637;53.352;-6.356;2023-05-20T02:09:44;18.60;;;6.65;;
35530;SDS011;21637;53.352;-6.356;2023-05-20T02:12:10;21.90;;;7.05;;
35530;SDS011;21637;53.352;-6.356;2023-05-20T02:14:44;20.30;;;7.22;;
35530;SDS011;21637;53.352;-6.356;2023-05-20T02:17:11;24.20;;;7.00;;
35530;SDS011;21637;53.352;-6.356;2023-05-20T02:19:41;21.90;;;6.97;;
35530;SDS011;21637;53.352;-6.356;2023-05-20T02:22:07;20.10;;;6.93;;
35530;SDS011;21637;53.352;-6.356;2023-05-20T02:24:33;18.17;;;6.82;;
35530;SDS011;21637;53.352;-6.356;2023-05-20T02:26:59;19.88;;;6.60;;
35530;SDS011;21637;53.352;-6.356;2023-05-20T02:29:25;17.38;;;6.85;;
35530;SDS011;21637;53.352;-6.356;2023-05-20T02:31:51;17.90;;;6.65;;
35530;SDS011;21637;53.352;-6.356;2023-05-20T02:34:17;17.08;;;6.30;;
35530;SDS011;21637;53.352;-6.356;2023-05-20T02:36:43;14.75;;;6.65;;
35530;SDS011;21637;53.352;-6.356;2023-05-20T02:39:08;20.65;;;7.28;;
35530;SDS011;21637;53.352;-6.356;2023-05-20T02:41:34;20.05;;;6.60;;
35530;SDS011;21637;53.352;-6.356;2023-05-20T02:44:00;21.15;;;7.00;;
35530;SDS011;21637;53.352;-6.356;2023-05-20T02:46:26;16.83;;;6.30;;
35530;SDS011;21637;53.352;-6.356;2023-05-20T02:48:51;20.65;;;6.68;;
35530;SDS011;21637;53.352;-6.356;2023-05-20T02:51:17;20.45;;;6.57;;
35530;SDS011;21637;53.352;-6.356;2023-05-20T02:53:43;19.60;;;7.00;;
35530;SDS011;21637;53.352;-6.356;2023-05-20T02:56:08;24.30;;;7.32;;
35530;SDS011;21637;53.352;-6.356;2023-05-20T02:58:35;16.92;;;6.80;;
35530;SDS011;21637;53.352;-6.356;2023-05-20T03:01:01;17.27;;;6.40;;
35530;SDS011;21637;53.352;-6.356;2023-05-20T03:03:27;20.77;;;7.35;;
35530;SDS011;21637;53.352;-6.356;2023-05-20T03:05:53;24.15;;;7.20;;
35530;SDS011;21637;53.352;-6.356;2023-05-20T03:08:19;20.98;;;6.65;;
35530;SDS011;21637;53.352;-6.356;2023-05-20T03:10:46;16.77;;;6.90;;
35530;SDS011;21637;53.352;-6.356;2023-05-20T03:13:12;17.90;;;6.55;;
35530;SDS011;21637;53.352;-6.356;2023-05-20T03:15:39;18.40;;;7.32;;
35530;SDS011;21637;53.352;-6.356;2023-05-20T03:18:11;20.90;;;7.63;;
35530;SDS011;21637;53.352;-6.356;2023-05-20T03:20:37;16.50;;;6.25;;
35530;SDS011;21637;53.352;-6.356;2023-05-20T03:23:04;19.63;;;6.60;;
35530;SDS011;21637;53.352;-6.356;2023-05-20T03:25:30;24.77;;;7.07;;
35530;SDS011;21637;53.352;-6.356;2023-05-20T03:27:56;19.05;;;6.57;;
35530;SDS011;21637;53.352;-6.356;2023-05-20T03:30:23;19.75;;;6.60;;
35530;SDS011;21637;53.352;-6.356;2023-05-20T03:32:49;20.77;;;6.55;;
35530;SDS011;21637;53.352;-6.356;2023-05-20T03:35:15;21.25;;;6.57;;
35530;SDS011;21637;53.352;-6.356;2023-05-20T03:37:41;17.88;;;6.72;;
35530;SDS011;21637;53.352;-6.356;2023-05-20T03:40:07;27.85;;;7.43;;
35530;SDS011;21637;53.352;-6.356;2023-05-20T03:42:37;23.95;;;7.53;;
35530;SDS011;21637;53.352;-6.356;2023-05-20T03:45:03;17.17;;;6.35;;
35530;SDS011;21637;53.352;-6.356;2023-05-20T03:47:29;19.63;;;6.60;;
35530;SDS011;21637;53.352;-6.356;2023-05-20T03:49:54;21.27;;;7.22;;
35530;SDS011;21637;53.352;-6.356;2023-05-20T03:52:20;18.00;;;6.88;;
35530;SDS011;21637;53.352;-6.356;2023-05-20T03:54:47;18.27;;;6.72;;
35530;SDS011;21637;53.352;-6.356;2023-05-20T03:57:13;19.55;;;6.63;;
35530;SDS011;21637;53.352;-6.356;2023-05-20T03:59:38;22.33;;;6.70;;
35530;SDS011;21637;53.352;-6.356;2023-05-20T04:02:04;14.75;;;6.22;;
35530;SDS011;21637;53.352;-6.356;2023-05-20T04:04:30;20.35;;;7.13;;
35530;SDS011;21637;53.352;-6.356;2023-05-20T04:06:57;18.58;;;7.35;;
35530;SDS011;21637;53.352;-6.356;2023-05-20T04:09:27;17.73;;;6.80;;
35530;SDS011;21637;53.352;-6.356;2023-05-20T04:11:53;20.73;;;6.57;;
35530;SDS011;21637;53.352;-6.356;2023-05-20T04:14:19;21.58;;;6.70;;
35530;SDS011;21637;53.352;-6.356;2023-05-20T04:16:44;15.90;;;6.65;;
35530;SDS011;21637;53.352;-6.356;2023-05-20T04:19:10;19.73;;;6.68;;
35530;SDS011;21637;53.352;-6.356;2023-05-20T04:21:36;17.48;;;7.03;;
35530;SDS011;21637;53.352;-6.356;2023-05-20T04:24:02;25.40;;;7.68;;
35530;SDS011;21637;53.352;-6.356;2023-05-20T04:26:28;18.45;;;6.60;;
35530;SDS011;21637;53.352;-6.356;2023-05-20T04:28:54;19.63;;;7.13;;
35530;SDS011;21637;53.352;-6.356;2023-05-20T04:31:23;19.92;;;6.57;;
35530;SDS011;21637;53.352;-6.356;2023-05-20T04:33:51;21.58;;;7.53;;
35530;SDS011;21637;53.352;-6.356;2023-05-20T04:36:20;16.00;;;6.90;;
35530;SDS011;21637;53.352;-6.356;2023-05-20T04:38:46;15.35;;;6.80;;
35530;SDS011;21637;53.352;-6.356;2023-05-20T04:41:13;20.65;;;7.38;;
35530;SDS011;21637;53.352;-6.356;2023-05-20T04:43:40;23.30;;;7.43;;
35530;SDS011;21637;53.352;-6.356;2023-05-20T04:46:06;24.13;;;7.63;;
35530;SDS011;21637;53.352;-6.356;2023-05-20T04:48:33;21.90;;;6.88;;
35530;SDS011;21637;53.352;-6.356;2023-05-20T04:50:59;20.23;;;7.43;;
35530;SDS011;21637;53.352;-6.356;2023-05-20T04:53:25;16.27;;;6.40;;
35530;SDS011;21637;53.352;-6.356;2023-05-20T04:55:53;16.30;;;6.38;;
35530;SDS011;21637;53.352;-6.356;2023-05-20T04:58:21;22.02;;;6.90;;
35530;SDS011;21637;53.352;-6.356;2023-05-20T05:00:48;15.98;;;6.22;;
35530;SDS011;21637;53.352;-6.356;2023-05-20T05:03:15;17.80;;;6.78;;
35530;SDS011;21637;53.352;-6.356;2023-05-20T05:05:41;18.92;;;7.25;;
35530;SDS011;21637;53.352;-6.356;2023-05-20T05:08:08;16.92;;;6.72;;
35530;SDS011;21637;53.352;-6.356;2023-05-20T05:10:35;20.73;;;7.78;;
35530;SDS011;21637;53.352;-6.356;2023-05-20T05:13:01;26.42;;;7.35;;
35530;SDS011;21637;53.352;-6.356;2023-05-20T05:15:27;23.48;;;6.88;;
35530;SDS011;21637;53.352;-6.356;2023-05-20T05:17:53;20.83;;;6.85;;
35530;SDS011;21637;53.352;-6.356;2023-05-20T05:20:19;17.50;;;7.10;;
35530;SDS011;21637;53.352;-6.356;2023-05-20T05:22:45;26.15;;;7.18;;
35530;SDS011;21637;53.352;-6.356;2023-05-20T05:25:11;20.25;;;7.53;;
35530;SDS011;21637;53.352;-6.356;2023-05-20T05:27:37;21.13;;;6.95;;
35530;SDS011;21637;53.352;-6.356;2023-05-20T05:30:04;18.40;;;7.20;;
35530;SDS011;21637;53.352;-6.356;2023-05-20T05:32:31;29.77;;;8.27;;
35530;SDS011;21637;53.352;-6.356;2023-05-20T05:34:57;20.42;;;7.47;;
35530;SDS011;21637;53.352;-6.356;2023-05-20T05:37:23;19.38;;;6.68;;
35530;SDS011;21637;53.352;-6.356;2023-05-20T05:39:48;15.85;;;6.43;;
35530;SDS011;21637;53.352;-6.356;2023-05-20T05:42:14;21.17;;;7.40;;
35530;SDS011;21637;53.352;-6.356;2023-05-20T05:44:40;17.38;;;7.55;;
35530;SDS011;21637;53.352;-6.356;2023-05-20T05:47:05;22.10;;;6.55;;
35530;SDS011;21637;53.352;-6.356;2023-05-20T05:49:32;24.33;;;7.45;;
35530;SDS011;21637;53.352;-6.356;2023-05-20T05:51:58;16.85;;;6.75;;
35530;SDS011;21637;53.352;-6.356;2023-05-20T05:54:24;16.35;;;6.57;;
35530;SDS011;21637;53.352;-6.356;2023-05-20T05:56:50;22.92;;;6.82;;
35530;SDS011;21637;53.352;-6.356;2023-05-20T05:59:17;16.65;;;5.85;;
35530;SDS011;21637;53.352;-6.356;2023-05-20T06:01:43;18.65;;;6.57;;
35530;SDS011;21637;53.352;-6.356;2023-05-20T06:04:10;22.15;;;6.90;;
35530;SDS011;21637;53.352;-6.356;2023-05-20T06:06:35;22.65;;;6.97;;
35530;SDS011;21637;53.352;-6.356;2023-05-20T06:09:01;21.65;;;7.43;;
35530;SDS011;21637;53.352;-6.356;2023-05-20T06:11:27;22.10;;;6.93;;
35530;SDS011;21637;53.352;-6.356;2023-05-20T06:13:53;20.88;;;7.53;;
35530;SDS011;21637;53.352;-6.356;2023-05-20T06:16:19;25.33;;;7.47;;
35530;SDS011;21637;53.352;-6.356;2023-05-20T06:18:45;25.00;;;7.03;;
35530;SDS011;21637;53.352;-6.356;2023-05-20T06:21:11;21.85;;;6.43;;
35530;SDS011;21637;53.352;-6.356;2023-05-20T06:23:36;18.23;;;6.53;;
35530;SDS011;21637;53.352;-6.356;2023-05-20T06:26:02;19.85;;;6.57;;
35530;SDS011;21637;53.352;-6.356;2023-05-20T06:28:28;20.30;;;6.30;;
35530;SDS011;21637;53.352;-6.356;2023-05-20T06:30:54;19.98;;;6.50;;
35530;SDS011;21637;53.352;-6.356;2023-05-20T06:33:22;20.65;;;6.60;;
35530;SDS011;21637;53.352;-6.356;2023-05-20T06:35:53;17.38;;;6.32;;
35530;SDS011;21637;53.352;-6.356;2023-05-20T06:38:19;19.25;;;7.00;;
35530;SDS011;21637;53.352;-6.356;2023-05-20T06:40:45;17.05;;;5.85;;
35530;SDS011;21637;53.352;-6.356;2023-05-20T06:43:12;21.02;;;6.90;;
35530;SDS011;21637;53.352;-6.356;2023-05-20T06:45:38;16.88;;;5.82;;
35530;SDS011;21637;53.352;-6.356;2023-05-20T06:48:04;20.90;;;6.28;;
35530;SDS011;21637;53.352;-6.356;2023-05-20T06:50:30;17.70;;;6.00;;
35530;SDS011;21637;53.352;-6.356;2023-05-20T06:52:56;16.70;;;5.57;;
35530;SDS011;21637;53.352;-6.356;2023-05-20T06:55:21;15.05;;;5.50;;
35530;SDS011;21637;53.352;-6.356;2023-05-20T06:57:47;19.77;;;5.85;;
35530;SDS011;21637;53.352;-6.356;2023-05-20T07:00:13;18.73;;;6.05;;
35530;SDS011;21637;53.352;-6.356;2023-05-20T07:02:39;21.92;;;6.40;;
35530;SDS011;21637;53.352;-6.356;2023-05-20T07:05:05;14.13;;;5.65;;
35530;SDS011;21637;53.352;-6.356;2023-05-20T07:07:31;14.07;;;5.32;;
35530;SDS011;21637;53.352;-6.356;2023-05-20T07:09:57;17.63;;;5.75;;
35530;SDS011;21637;53.352;-6.356;2023-05-20T07:12:22;16.92;;;5.18;;
35530;SDS011;21637;53.352;-6.356;2023-05-20T07:14:48;16.52;;;5.22;;
35530;SDS011;21637;53.352;-6.356;2023-05-20T07:17:14;16.98;;;4.82;;
35530;SDS011;21637;53.352;-6.356;2023-05-20T07:19:40;13.98;;;4.60;;
35530;SDS011;21637;53.352;-6.356;2023-05-20T07:22:06;15.35;;;4.50;;
35530;SDS011;21637;53.352;-6.356;2023-05-20T07:24:32;15.30;;;4.97;;
35530;SDS011;21637;53.352;-6.356;2023-05-20T07:26:57;15.98;;;5.15;;
35530;SDS011;21637;53.352;-6.356;2023-05-20T07:29:23;13.15;;;4.25;;
35530;SDS011;21637;53.352;-6.356;2023-05-20T07:31:49;11.80;;;4.75;;
35530;SDS011;21637;53.352;-6.356;2023-05-20T07:34:14;14.32;;;4.63;;
35530;SDS011;21637;53.352;-6.356;2023-05-20T07:36:40;11.73;;;4.40;;
35530;SDS011;21637;53.352;-6.356;2023-05-20T07:39:07;13.77;;;4.15;;
35530;SDS011;21637;53.352;-6.356;2023-05-20T07:41:34;11.98;;;4.70;;
35530;SDS011;21637;53.352;-6.356;2023-05-20T07:44:01;15.68;;;5.00;;
35530;SDS011;21637;53.352;-6.356;2023-05-20T07:46:28;16.92;;;4.72;;
35530;SDS011;21637;53.352;-6.356;2023-05-20T07:48:54;13.63;;;5.07;;
35530;SDS011;21637;53.352;-6.356;2023-05-20T07:51:20;15.85;;;4.72;;
35530;SDS011;21637;53.352;-6.356;2023-05-20T07:53:46;15.43;;;5.25;;
35530;SDS011;21637;53.352;-6.356;2023-05-20T07:56:12;13.48;;;4.95;;
35530;SDS011;21637;53.352;-6.356;2023-05-20T07:58:40;15.90;;;5.15;;
35530;SDS011;21637;53.352;-6.356;2023-05-20T08:01:06;20.48;;;5.15;;
35530;SDS011;21637;53.352;-6.356;2023-05-20T08:03:33;14.02;;;4.85;;
35530;SDS011;21637;53.352;-6.356;2023-05-20T08:06:00;11.85;;;4.80;;
35530;SDS011;21637;53.352;-6.356;2023-05-20T08:08:27;9.93;;;3.88;;
35530;SDS011;21637;53.352;-6.356;2023-05-20T08:10:54;19.27;;;5.75;;
35530;SDS011;21637;53.352;-6.356;2023-05-20T08:13:20;14.65;;;5.15;;
35530;SDS011;21637;53.352;-6.356;2023-05-20T08:15:46;14.57;;;4.53;;
35530;SDS011;21637;53.352;-6.356;2023-05-20T08:18:13;13.00;;;4.45;;
35530;SDS011;21637;53.352;-6.356;2023-05-20T08:20:39;18.25;;;5.05;;
35530;SDS011;21637;53.352;-6.356;2023-05-20T08:23:06;14.95;;;5.20;;
35530;SDS011;21637;53.352;-6.356;2023-05-20T08:25:32;13.85;;;4.78;;
35530;SDS011;21637;53.352;-6.356;2023-05-20T08:28:00;14.68;;;4.97;;
35530;SDS011;21637;53.352;-6.356;2023-05-20T08:30:27;15.65;;;4.55;;
35530;SDS011;21637;53.352;-6.356;2023-05-20T08:32:54;13.80;;;5.25;;
35530;SDS011;21637;53.352;-6.356;2023-05-20T08:35:20;11.60;;;4.93;;
35530;SDS011;21637;53.352;-6.356;2023-05-20T08:37:47;13.32;;;4.85;;
35530;SDS011;21637;53.352;-6.356;2023-05-20T08:40:13;15.35;;;5.75;;
35530;SDS011;21637;53.352;-6.356;2023-05-20T08:42:42;17.52;;;5.60;;
35530;SDS011;21637;53.352;-6.356;2023-05-20T08:45:10;15.82;;;6.18;;
35530;SDS011;21637;53.352;-6.356;2023-05-20T08:47:40;18.05;;;5.60;;
35530;SDS011;21637;53.352;-6.356;2023-05-20T08:50:10;14.77;;;5.47;;
35530;SDS011;21637;53.352;-6.356;2023-05-20T08:52:37;13.13;;;5.25;;
35530;SDS011;21637;53.352;-6.356;2023-05-20T08:55:08;13.02;;;5.35;;
35530;SDS011;21637;53.352;-6.356;2023-05-20T08:57:39;13.55;;;5.45;;
35530;SDS011;21637;53.352;-6.356;2023-05-20T09:00:06;16.92;;;5.53;;
35530;SDS011;21637;53.352;-6.356;2023-05-20T09:02:37;15.65;;;5.85;;
35530;SDS011;21637;53.352;-6.356;2023-05-20T09:05:04;15.85;;;6.13;;
35530;SDS011;21637;53.352;-6.356;2023-05-20T09:07:30;15.65;;;6.70;;
35530;SDS011;21637;53.352;-6.356;2023-05-20T09:09:56;16.92;;;6.00;;
35530;SDS011;21637;53.352;-6.356;2023-05-20T09:12:22;16.02;;;6.07;;
35530;SDS011;21637;53.352;-6.356;2023-05-20T09:14:48;18.70;;;5.57;;
35530;SDS011;21637;53.352;-6.356;2023-05-20T09:17:14;14.70;;;5.30;;
35530;SDS011;21637;53.352;-6.356;2023-05-20T09:19:41;18.38;;;5.40;;
35530;SDS011;21637;53.352;-6.356;2023-05-20T09:22:07;15.60;;;5.80;;
35530;SDS011;21637;53.352;-6.356;2023-05-20T09:24:33;17.33;;;5.25;;
35530;SDS011;21637;53.352;-6.356;2023-05-20T09:26:59;15.90;;;5.50;;
35530;SDS011;21637;53.352;-6.356;2023-05-20T09:29:25;15.77;;;5.32;;
35530;SDS011;21637;53.352;-6.356;2023-05-20T09:31:51;17.00;;;5.55;;
35530;SDS011;21637;53.352;-6.356;2023-05-20T09:34:18;19.13;;;5.68;;
35530;SDS011;21637;53.352;-6.356;2023-05-20T09:36:45;15.35;;;5.80;;
35530;SDS011;21637;53.352;-6.356;2023-05-20T09:39:15;17.92;;;5.90;;
35530;SDS011;21637;53.352;-6.356;2023-05-20T09:41:54;16.65;;;5.63;;
35530;SDS011;21637;53.352;-6.356;2023-05-20T09:44:26;14.73;;;5.63;;
35530;SDS011;21637;53.352;-6.356;2023-05-20T09:46:54;16.80;;;5.88;;
35530;SDS011;21637;53.352;-6.356;2023-05-20T09:49:21;15.65;;;6.43;;
35530;SDS011;21637;53.352;-6.356;2023-05-20T09:51:48;15.20;;;5.63;;
35530;SDS011;21637;53.352;-6.356;2023-05-20T09:54:16;15.48;;;5.55;;
35530;SDS011;21637;53.352;-6.356;2023-05-20T09:56:43;18.17;;;5.50;;
35530;SDS011;21637;53.352;-6.356;2023-05-20T09:59:10;15.45;;;6.00;;
35530;SDS011;21637;53.352;-6.356;2023-05-20T10:01:40;18.67;;;4.93;;
35530;SDS011;21637;53.352;-6.356;2023-05-20T10:04:06;20.55;;;5.43;;
35530;SDS011;21637;53.352;-6.356;2023-05-20T10:15:06;21.52;;;5.82;;
35530;SDS011;21637;53.352;-6.356;2023-05-20T10:20:18;22.27;;;6.60;;
35530;SDS011;21637;53.352;-6.356;2023-05-20T10:22:53;14.98;;;5.75;;
35530;SDS011;21637;53.352;-6.356;2023-05-20T10:25:26;15.57;;;5.53;;
35530;SDS011;21637;53.352;-6.356;2023-05-20T10:28:02;18.73;;;5.97;;
35530;SDS011;21637;53.352;-6.356;2023-05-20T10:30:31;14.55;;;5.55;;
35530;SDS011;21637;53.352;-6.356;2023-05-20T10:33:02;18.58;;;6.35;;
35530;SDS011;21637;53.352;-6.356;2023-05-20T10:35:29;18.55;;;5.68;;
35530;SDS011;21637;53.352;-6.356;2023-05-20T10:38:16;18.88;;;6.93;;
35530;SDS011;21637;53.352;-6.356;2023-05-20T10:40:41;18.73;;;5.93;;
35530;SDS011;21637;53.352;-6.356;2023-05-20T10:43:10;17.35;;;5.90;;
35530;SDS011;21637;53.352;-6.356;2023-05-20T10:45:48;14.40;;;5.93;;
35530;SDS011;21637;53.352;-6.356;2023-05-20T10:50:56;18.15;;;5.85;;
35530;SDS011;21637;53.352;-6.356;2023-05-20T10:53:37;20.33;;;6.10;;
35530;SDS011;21637;53.352;-6.356;2023-05-20T10:56:04;19.73;;;6.03;;
35530;SDS011;21637;53.352;-6.356;2023-05-20T10:58:37;20.23;;;6.22;;
35530;SDS011;21637;53.352;-6.356;2023-05-20T11:01:03;18.63;;;5.68;;
35530;SDS011;21637;53.352;-6.356;2023-05-20T11:03:29;21.52;;;6.75;;
35530;SDS011;21637;53.352;-6.356;2023-05-20T11:05:55;17.95;;;5.40;;
35530;SDS011;21637;53.352;-6.356;2023-05-20T11:08:21;20.90;;;6.43;;
35530;SDS011;21637;53.352;-6.356;2023-05-20T11:10:51;19.88;;;6.60;;
35530;SDS011;21637;53.352;-6.356;2023-05-20T11:13:17;19.55;;;7.03;;
35530;SDS011;21637;53.352;-6.356;2023-05-20T11:15:43;21.73;;;6.63;;
35530;SDS011;21637;53.352;-6.356;2023-05-20T11:18:09;17.15;;;5.70;;
35530;SDS011;21637;53.352;-6.356;2023-05-20T11:20:37;18.80;;;6.10;;
35530;SDS011;21637;53.352;-6.356;2023-05-20T11:23:04;16.60;;;6.63;;
35530;SDS011;21637;53.352;-6.356;2023-05-20T11:25:31;16.95;;;6.30;;
35530;SDS011;21637;53.352;-6.356;2023-05-20T11:27:58;20.92;;;6.60;;
35530;SDS011;21637;53.352;-6.356;2023-05-20T11:30:24;18.23;;;6.05;;
35530;SDS011;21637;53.352;-6.356;2023-05-20T11:32:59;19.50;;;5.80;;
35530;SDS011;21637;53.352;-6.356;2023-05-20T11:35:28;19.83;;;5.65;;
35530;SDS011;21637;53.352;-6.356;2023-05-20T11:38:03;19.20;;;6.60;;
35530;SDS011;21637;53.352;-6.356;2023-05-20T11:40:30;21.83;;;6.65;;
35530;SDS011;21637;53.352;-6.356;2023-05-20T11:43:00;17.52;;;6.53;;
35530;SDS011;21637;53.352;-6.356;2023-05-20T11:45:40;17.63;;;5.80;;
35530;SDS011;21637;53.352;-6.356;2023-05-20T11:48:10;13.27;;;5.45;;
35530;SDS011;21637;53.352;-6.356;2023-05-20T11:50:37;23.92;;;6.25;;
35530;SDS011;21637;53.352;-6.356;2023-05-20T11:53:23;19.10;;;5.68;;
35530;SDS011;21637;53.352;-6.356;2023-05-20T11:58:19;20.50;;;6.18;;
35530;SDS011;21637;53.352;-6.356;2023-05-20T12:00:46;15.93;;;5.85;;
35530;SDS011;21637;53.352;-6.356;2023-05-20T12:03:12;22.73;;;6.25;;
35530;SDS011;21637;53.352;-6.356;2023-05-20T12:05:38;21.23;;;6.38;;
35530;SDS011;21637;53.352;-6.356;2023-05-20T12:08:04;18.25;;;6.07;;
35530;SDS011;21637;53.352;-6.356;2023-05-20T12:10:31;15.25;;;5.55;;
35530;SDS011;21637;53.352;-6.356;2023-05-20T12:12:57;18.83;;;6.35;;
35530;SDS011;21637;53.352;-6.356;2023-05-20T12:15:23;14.18;;;5.57;;
35530;SDS011;21637;53.352;-6.356;2023-05-20T12:17:51;19.92;;;6.40;;
35530;SDS011;21637;53.352;-6.356;2023-05-20T12:20:19;18.58;;;6.38;;
35530;SDS011;21637;53.352;-6.356;2023-05-20T12:22:46;35.40;;;7.18;;
35530;SDS011;21637;53.352;-6.356;2023-05-20T12:25:16;15.15;;;5.80;;
35530;SDS011;21637;53.352;-6.356;2023-05-20T12:27:43;24.48;;;7.47;;
35530;SDS011;21637;53.352;-6.356;2023-05-20T12:30:12;21.25;;;6.55;;
35530;SDS011;21637;53.352;-6.356;2023-05-20T12:32:40;15.27;;;6.13;;
35530;SDS011;21637;53.352;-6.356;2023-05-20T12:35:07;19.25;;;6.25;;
35530;SDS011;21637;53.352;-6.356;2023-05-20T12:37:34;19.10;;;6.28;;
35530;SDS011;21637;53.352;-6.356;2023-05-20T12:40:01;19.95;;;6.25;;
35530;SDS011;21637;53.352;-6.356;2023-05-20T12:42:33;18.63;;;6.60;;
35530;SDS011;21637;53.352;-6.356;2023-05-20T12:45:02;15.30;;;5.63;;
35530;SDS011;21637;53.352;-6.356;2023-05-20T12:47:29;18.10;;;6.03;;
35530;SDS011;21637;53.352;-6.356;2023-05-20T12:49:56;20.05;;;6.22;;
35530;SDS011;21637;53.352;-6.356;2023-05-20T12:52:21;20.75;;;6.43;;
35530;SDS011;21637;53.352;-6.356;2023-05-20T12:54:47;19.98;;;6.15;;
35530;SDS011;21637;53.352;-6.356;2023-05-20T12:57:13;14.77;;;5.68;;
35530;SDS011;21637;53.352;-6.356;2023-05-20T12:59:38;22.42;;;6.38;;
35530;SDS011;21637;53.352;-6.356;2023-05-20T13:02:04;16.80;;;5.97;;
35530;SDS011;21637;53.352;-6.356;2023-05-20T13:04:31;17.15;;;5.75;;
35530;SDS011;21637;53.352;-6.356;2023-05-20T13:06:56;17.40;;;6.25;;
35530;SDS011;21637;53.352;-6.356;2023-05-20T13:09:22;11.00;;;5.45;;
35530;SDS011;21637;53.352;-6.356;2023-05-20T13:11:48;18.00;;;5.90;;
35530;SDS011;21637;53.352;-6.356;2023-05-20T13:14:14;15.90;;;5.85;;
35530;SDS011;21637;53.352;-6.356;2023-05-20T13:16:40;14.68;;;5.93;;
35530;SDS011;21637;53.352;-6.356;2023-05-20T13:19:06;12.95;;;5.88;;
35530;SDS011;21637;53.352;-6.356;2023-05-20T13:21:31;14.98;;;5.30;;
35530;SDS011;21637;53.352;-6.356;2023-05-20T13:23:58;17.48;;;5.90;;
35530;SDS011;21637;53.352;-6.356;2023-05-20T13:26:25;15.15;;;5.45;;
35530;SDS011;21637;53.352;-6.356;2023-05-20T13:28:51;20.10;;;6.38;;
35530;SDS011;21637;53.352;-6.356;2023-05-20T13:31:17;15.93;;;6.47;;
35530;SDS011;21637;53.352;-6.356;2023-05-20T13:33:42;17.52;;;5.90;;
35530;SDS011;21637;53.352;-6.356;2023-05-20T13:36:08;25.40;;;6.70;;
35530;SDS011;21637;53.352;-6.356;2023-05-20T13:38:34;31.58;;;6.57;;
35530;SDS011;21637;53.352;-6.356;2023-05-20T13:41:00;24.98;;;6.00;;
35530;SDS011;21637;53.352;-6.356;2023-05-20T13:43:26;16.33;;;6.35;;
35530;SDS011;21637;53.352;-6.356;2023-05-20T13:45:52;16.10;;;5.78;;
35530;SDS011;21637;53.352;-6.356;2023-05-20T13:48:18;18.58;;;5.90;;
35530;SDS011;21637;53.352;-6.356;2023-05-20T13:50:44;22.25;;;6.22;;
35530;SDS011;21637;53.352;-6.356;2023-05-20T13:53:10;19.83;;;5.93;;
35530;SDS011;21637;53.352;-6.356;2023-05-20T13:55:38;21.00;;;5.95;;
35530;SDS011;21637;53.352;-6.356;2023-05-20T13:58:04;13.18;;;5.43;;
35530;SDS011;21637;53.352;-6.356;2023-05-20T14:00:33;17.77;;;5.82;;
35530;SDS011;21637;53.352;-6.356;2023-05-20T14:03:00;15.38;;;5.57;;
35530;SDS011;21637;53.352;-6.356;2023-05-20T14:05:28;16.58;;;6.22;;
35530;SDS011;21637;53.352;-6.356;2023-05-20T14:07:55;19.05;;;5.97;;
35530;SDS011;21637;53.352;-6.356;2023-05-20T14:10:21;20.60;;;5.38;;
35530;SDS011;21637;53.352;-6.356;2023-05-20T14:12:47;11.63;;;5.13;;
35530;SDS011;21637;53.352;-6.356;2023-05-20T14:15:12;14.75;;;5.72;;
35530;SDS011;21637;53.352;-6.356;2023-05-20T14:17:38;20.83;;;5.78;;
35530;SDS011;21637;53.352;-6.356;2023-05-20T14:20:04;18.58;;;6.10;;
35530;SDS011;21637;53.352;-6.356;2023-05-20T14:22:32;23.67;;;6.78;;
35530;SDS011;21637;53.352;-6.356;2023-05-20T14:24:58;13.30;;;5.45;;
35530;SDS011;21637;53.352;-6.356;2023-05-20T14:27:24;19.52;;;5.90;;
35530;SDS011;21637;53.352;-6.356;2023-05-20T14:29:50;22.85;;;6.70;;
35530;SDS011;21637;53.352;-6.356;2023-05-20T14:32:15;15.80;;;6.28;;
35530;SDS011;21637;53.352;-6.356;2023-05-20T14:34:41;17.67;;;6.00;;